San Antonio, Texas
Traffic Map
Current Weather Conditions
San Antonio, Texas
Overcast Light Rain
Overcast
57°
Feels Like: 57°
Wind Chill: 57° Ceiling: 600
Heat Index: 57° Visibility: 3mi
Dew Point: 55° Wind: 5mph
Humidity: 93% Direction: 140° (SE)
Pressure: 30.14in Gusts: 0mph
Raw Report DataKSAT 162351Z 14004KT 3SM -RA BR OVC006 14/13 A3014 RMK AO2 RAB47 SLP198 P0000 60001 T01390128 10150 20122 58008
Traffic Incident Summary
Active as of:
Severity:
Category:
InformationThere was an issue retrieving the traffic information for this location. Please try a different location or try again shortly.
Advertisements